createdAt,value
2022-11-08T00:01:54.179Z,9.47
2022-11-08T00:04:29.458Z,9.40
2022-11-08T00:07:18.983Z,9.31
2022-11-08T00:10:07.937Z,9.29
2022-11-08T00:12:53.170Z,9.28
2022-11-08T00:15:22.779Z,9.30
2022-11-08T00:17:52.714Z,9.31
2022-11-08T00:20:19.127Z,9.34
2022-11-08T00:22:45.577Z,9.37
2022-11-08T00:25:11.946Z,9.31
2022-11-08T00:27:38.368Z,9.33
2022-11-08T00:30:05.129Z,9.32
2022-11-08T00:32:31.595Z,9.29
2022-11-08T00:34:58.051Z,9.35
2022-11-08T00:37:24.534Z,9.36
2022-11-08T00:39:51.000Z,9.32
2022-11-08T00:42:17.461Z,9.29
2022-11-08T00:44:43.940Z,9.28
2022-11-08T00:47:10.397Z,9.20
2022-11-08T00:49:36.869Z,9.18
2022-11-08T00:52:03.362Z,9.16
2022-11-08T00:54:29.805Z,9.14
2022-11-08T00:56:56.258Z,9.09
2022-11-08T00:59:22.751Z,9.06
2022-11-08T01:01:49.305Z,9.02
2022-11-08T01:04:16.939Z,8.98
2022-11-08T01:06:43.419Z,9.02
2022-11-08T01:09:09.859Z,9.09
2022-11-08T01:11:36.300Z,9.13
2022-11-08T01:14:02.710Z,9.14
2022-11-08T01:16:30.935Z,9.13
2022-11-08T01:18:57.994Z,9.11
2022-11-08T01:21:25.122Z,9.08
2022-11-08T01:23:51.699Z,9.05
2022-11-08T01:26:19.528Z,9.05
2022-11-08T01:28:46.303Z,9.06
2022-11-08T01:31:13.760Z,9.02
2022-11-08T01:33:40.603Z,8.96
2022-11-08T01:36:08.010Z,8.93
2022-11-08T01:38:34.430Z,8.86
2022-11-08T01:41:01.220Z,8.85
2022-11-08T01:43:30.775Z,8.84
2022-11-08T01:46:05.990Z,8.86
2022-11-08T01:48:32.425Z,8.87
2022-11-08T01:50:59.847Z,8.86
2022-11-08T01:53:28.051Z,8.85
2022-11-08T01:55:55.245Z,8.82
2022-11-08T01:58:25.157Z,8.78
2022-11-08T02:00:52.402Z,8.72
2022-11-08T02:03:19.994Z,8.67
2022-11-08T02:05:47.365Z,8.60
2022-11-08T02:08:20.517Z,8.56
2022-11-08T02:10:49.491Z,8.54
2022-11-08T02:13:18.505Z,8.46
2022-11-08T02:15:45.264Z,8.43
2022-11-08T02:18:13.262Z,8.42
2022-11-08T02:20:44.098Z,8.37
2022-11-08T02:23:24.873Z,8.33
2022-11-08T02:25:51.713Z,8.28
2022-11-08T02:28:18.412Z,8.23
2022-11-08T02:30:45.126Z,8.20
2022-11-08T02:33:19.885Z,8.17
2022-11-08T02:35:48.625Z,8.10
2022-11-08T02:38:15.333Z,8.06
2022-11-08T02:40:52.604Z,8.00
2022-11-08T02:43:19.126Z,8.00
2022-11-08T02:45:45.603Z,7.99
2022-11-08T02:48:12.915Z,7.87
2022-11-08T02:50:39.906Z,7.75
2022-11-08T02:53:06.880Z,7.66
2022-11-08T02:55:34.303Z,7.54
2022-11-08T02:58:01.383Z,7.46
2022-11-08T03:00:27.876Z,7.39
2022-11-08T03:02:54.561Z,7.33
2022-11-08T03:05:21.563Z,7.27
2022-11-08T03:07:48.035Z,7.23
2022-11-08T03:10:14.777Z,7.18
2022-11-08T03:12:42.989Z,7.16
2022-11-08T03:15:10.238Z,7.12
2022-11-08T03:17:36.769Z,7.07
2022-11-08T03:20:03.922Z,7.03
2022-11-08T03:22:30.294Z,7.00
2022-11-08T03:24:56.745Z,6.97
2022-11-08T03:27:23.433Z,6.94
2022-11-08T03:29:50.056Z,6.92
2022-11-08T03:32:16.673Z,6.88
2022-11-08T03:34:43.092Z,6.85
2022-11-08T03:37:10.619Z,6.83
2022-11-08T03:39:36.952Z,6.80
2022-11-08T03:42:04.608Z,6.75
2022-11-08T03:44:31.703Z,6.69
2022-11-08T03:46:58.671Z,6.63
2022-11-08T03:49:25.507Z,6.60
2022-11-08T03:51:51.886Z,6.57
2022-11-08T03:54:18.209Z,6.52
2022-11-08T03:56:44.601Z,6.48
2022-11-08T03:59:11.462Z,6.43
2022-11-08T04:01:38.356Z,6.41
2022-11-08T04:04:05.603Z,6.35
2022-11-08T04:06:31.944Z,6.33
2022-11-08T04:08:58.527Z,6.28
2022-11-08T04:11:43.668Z,6.23
2022-11-08T04:14:29.044Z,6.20
2022-11-08T04:16:55.615Z,6.12
2022-11-08T04:19:40.891Z,6.11
2022-11-08T04:22:07.874Z,6.05
2022-11-08T04:24:34.403Z,6.04
2022-11-08T04:27:02.149Z,6.02
2022-11-08T04:29:28.878Z,5.94
2022-11-08T04:31:55.230Z,5.92
2022-11-08T04:34:21.626Z,5.88
2022-11-08T04:36:47.983Z,5.86
2022-11-08T04:39:14.395Z,5.80
2022-11-08T04:41:40.752Z,5.79
2022-11-08T04:44:07.193Z,5.76
2022-11-08T04:46:33.655Z,5.76
2022-11-08T04:49:00.298Z,5.76
2022-11-08T04:51:28.041Z,5.75
2022-11-08T04:53:56.473Z,5.71
2022-11-08T04:56:23.326Z,5.69
2022-11-08T04:58:51.132Z,5.68
2022-11-08T05:01:18.970Z,5.62
2022-11-08T05:03:46.291Z,5.56
2022-11-08T05:06:14.144Z,5.52
2022-11-08T05:08:40.809Z,5.51
2022-11-08T05:11:10.534Z,5.47
2022-11-08T05:13:37.201Z,5.45
2022-11-08T05:16:19.905Z,5.41
2022-11-08T05:18:46.341Z,5.36
2022-11-08T05:21:32.319Z,5.39
2022-11-08T05:23:59.538Z,5.37
2022-11-08T05:26:26.359Z,5.34
2022-11-08T05:28:52.721Z,5.32
2022-11-08T05:31:19.173Z,5.27
2022-11-08T05:33:45.686Z,5.22
2022-11-08T05:36:13.648Z,5.21
2022-11-08T05:38:40.213Z,5.16
2022-11-08T05:41:07.826Z,5.12
2022-11-08T05:43:34.523Z,5.09
2022-11-08T05:46:00.957Z,5.05
2022-11-08T05:48:27.317Z,5.03
2022-11-08T05:50:53.690Z,5.00
2022-11-08T05:53:20.563Z,4.98
2022-11-08T05:55:47.265Z,4.98
2022-11-08T05:58:13.868Z,5.00
2022-11-08T06:00:40.227Z,4.99
2022-11-08T06:03:07.086Z,5.03
2022-11-08T06:05:34.063Z,5.01
2022-11-08T06:08:00.547Z,5.04
2022-11-08T06:10:26.933Z,5.05
2022-11-08T06:12:53.360Z,5.05
2022-11-08T06:15:19.749Z,5.06
2022-11-08T06:17:46.519Z,5.07
2022-11-08T06:20:15.610Z,5.09
2022-11-08T06:22:43.475Z,5.10
2022-11-08T06:25:10.690Z,5.10
2022-11-08T06:27:37.071Z,5.10
2022-11-08T06:30:04.368Z,5.10
2022-11-08T06:32:30.905Z,5.11
2022-11-08T06:34:57.377Z,5.14
2022-11-08T06:37:23.742Z,5.14
2022-11-08T06:39:50.204Z,5.15
2022-11-08T06:42:16.622Z,5.17
2022-11-08T06:44:43.486Z,5.19
2022-11-08T06:47:09.834Z,5.19
2022-11-08T06:49:37.170Z,5.21
2022-11-08T06:52:04.026Z,5.22
2022-11-08T06:54:30.735Z,5.24
2022-11-08T06:57:00.515Z,5.26
2022-11-08T06:59:29.716Z,5.30
2022-11-08T07:01:56.798Z,5.37
2022-11-08T07:04:23.941Z,5.41
2022-11-08T07:06:50.455Z,5.50
2022-11-08T07:09:16.856Z,5.56
2022-11-08T07:11:43.383Z,5.62
2022-11-08T07:14:09.720Z,5.73
2022-11-08T07:16:36.071Z,5.81
2022-11-08T07:19:02.629Z,5.91
2022-11-08T07:21:29.020Z,6.01
2022-11-08T07:23:55.410Z,6.12
2022-11-08T07:26:21.993Z,6.20
2022-11-08T07:28:48.316Z,6.29
2022-11-08T07:31:14.841Z,6.41
2022-11-08T07:33:41.169Z,6.54
2022-11-08T07:36:07.793Z,6.67
2022-11-08T07:38:34.146Z,6.82
2022-11-08T07:41:03.730Z,6.92
2022-11-08T07:43:30.717Z,7.03
2022-11-08T07:46:01.141Z,7.22
2022-11-08T07:48:28.711Z,7.38
2022-11-08T07:50:55.561Z,7.51
2022-11-08T07:53:35.562Z,7.63
2022-11-08T07:56:01.997Z,7.79
2022-11-08T07:58:28.589Z,7.89
2022-11-08T08:01:01.982Z,7.98
2022-11-08T08:03:28.623Z,8.05
2022-11-08T08:06:00.513Z,8.14
2022-11-08T08:08:27.661Z,8.28
2022-11-08T08:10:56.593Z,8.35
2022-11-08T08:13:22.993Z,8.47
2022-11-08T08:15:49.546Z,8.58
2022-11-08T08:18:17.399Z,8.68
2022-11-08T08:20:43.764Z,8.86
2022-11-08T08:23:10.176Z,9.03
2022-11-08T08:25:36.744Z,9.18
2022-11-08T08:28:03.319Z,9.30
2022-11-08T08:30:30.857Z,9.44
2022-11-08T08:33:26.849Z,9.60
2022-11-08T08:35:52.481Z,9.81
2022-11-08T08:38:18.961Z,9.96
2022-11-08T08:40:45.329Z,10.14
2022-11-08T08:43:11.784Z,10.24
2022-11-08T08:45:38.889Z,10.38
2022-11-08T08:48:05.508Z,10.59
2022-11-08T08:50:32.263Z,10.81
2022-11-08T08:53:02.815Z,11.10
2022-11-08T08:55:29.707Z,11.43
2022-11-08T08:57:56.226Z,11.96
2022-11-08T09:03:09.591Z,12.58
2022-11-08T09:05:36.226Z,12.84
2022-11-08T09:08:03.630Z,13.04
2022-11-08T09:10:30.044Z,13.50
2022-11-08T09:12:56.440Z,13.66
2022-11-08T09:15:22.956Z,13.88
2022-11-08T09:17:49.446Z,13.91
2022-11-08T09:20:16.153Z,14.00
2022-11-08T09:22:42.571Z,14.14
2022-11-08T09:25:10.473Z,14.16
2022-11-08T09:27:36.888Z,14.11
2022-11-08T09:30:09.428Z,14.08
2022-11-08T09:32:59.016Z,14.08
2022-11-08T09:35:22.536Z,14.09
2022-11-08T09:37:49.968Z,14.09
2022-11-08T09:40:25.852Z,14.06
2022-11-08T09:43:04.954Z,14.06
2022-11-08T09:45:37.272Z,14.04
2022-11-08T09:48:07.560Z,14.10
2022-11-08T09:50:34.035Z,14.17
2022-11-08T09:53:06.443Z,14.23
2022-11-08T09:55:53.160Z,14.33
2022-11-08T09:58:19.490Z,14.44
2022-11-08T10:00:46.216Z,14.42
2022-11-08T10:03:16.229Z,14.34
2022-11-08T10:05:48.262Z,14.35
2022-11-08T10:08:25.930Z,14.47
2022-11-08T10:11:07.425Z,14.49
2022-11-08T10:14:00.186Z,14.56
2022-11-08T10:16:38.359Z,14.73
2022-11-08T10:19:19.110Z,14.87
2022-11-08T10:21:54.648Z,15.00
2022-11-08T10:24:35.445Z,15.16
2022-11-08T10:27:02.994Z,15.25
2022-11-08T10:29:35.906Z,15.38
2022-11-08T10:32:22.518Z,15.47
2022-11-08T10:34:48.918Z,15.55
2022-11-08T10:37:16.627Z,15.56
2022-11-08T10:39:48.416Z,15.58
2022-11-08T10:42:17.091Z,15.62
2022-11-08T10:44:44.114Z,15.66
2022-11-08T10:47:18.169Z,15.74
2022-11-08T10:49:44.608Z,15.86
2022-11-08T10:52:19.300Z,15.89
2022-11-08T10:54:55.595Z,15.91
2022-11-08T10:57:28.166Z,16.02
2022-11-08T10:59:55.319Z,15.97
2022-11-08T11:02:21.733Z,16.12
2022-11-08T11:04:48.608Z,16.28
2022-11-08T11:07:34.940Z,16.33
2022-11-08T11:10:20.040Z,16.36
2022-11-08T11:12:50.705Z,16.41
2022-11-08T11:15:17.205Z,16.42
2022-11-08T11:17:46.912Z,16.43
2022-11-08T11:20:22.168Z,16.41
2022-11-08T11:22:49.342Z,16.35
2022-11-08T11:25:17.274Z,16.39
2022-11-08T11:27:44.211Z,16.39
2022-11-08T11:30:28.391Z,16.42
2022-11-08T11:32:57.893Z,16.44
2022-11-08T11:35:26.630Z,16.52
2022-11-08T11:37:54.047Z,16.58
2022-11-08T11:40:20.504Z,16.62
2022-11-08T11:43:08.884Z,16.59
2022-11-08T11:45:40.543Z,16.57
2022-11-08T11:48:22.820Z,16.59
2022-11-08T11:50:50.154Z,16.63
2022-11-08T11:53:18.493Z,16.69
2022-11-08T11:55:52.079Z,16.75
2022-11-08T11:58:36.355Z,16.83
2022-11-08T12:01:16.290Z,16.88
2022-11-08T12:03:54.154Z,16.94
2022-11-08T12:06:29.302Z,16.87
2022-11-08T12:08:55.649Z,16.77
2022-11-08T12:11:21.952Z,16.76
2022-11-08T12:14:03.377Z,16.80
2022-11-08T12:16:41.453Z,16.85
2022-11-08T12:19:17.177Z,16.94
2022-11-08T12:21:52.529Z,17.00
2022-11-08T12:24:28.344Z,17.00
2022-11-08T12:27:00.562Z,16.91
2022-11-08T12:29:41.623Z,16.88
2022-11-08T12:32:27.420Z,16.76
2022-11-08T12:35:12.741Z,16.73
2022-11-08T12:37:50.372Z,16.76
2022-11-08T12:40:17.542Z,16.72
2022-11-08T12:42:43.912Z,16.66
2022-11-08T12:45:20.831Z,16.68
2022-11-08T12:48:00.333Z,16.52
2022-11-08T12:50:45.925Z,16.30
2022-11-08T12:53:21.335Z,16.16
2022-11-08T12:55:48.670Z,16.08
2022-11-08T12:58:24.051Z,16.13
2022-11-08T13:00:53.184Z,16.11
2022-11-08T13:03:42.822Z,16.02
2022-11-08T13:06:18.126Z,15.96
2022-11-08T13:08:58.797Z,15.91
2022-11-08T13:11:32.385Z,15.84
2022-11-08T13:14:00.406Z,15.82
2022-11-08T13:16:26.749Z,15.89
2022-11-08T13:18:53.160Z,15.89
2022-11-08T13:21:25.665Z,15.86
2022-11-08T13:23:52.825Z,15.88
2022-11-08T13:26:23.043Z,15.84
2022-11-08T13:28:50.055Z,15.77
2022-11-08T13:31:39.985Z,15.72
2022-11-08T13:34:09.226Z,15.71
2022-11-08T13:36:44.690Z,15.58
2022-11-08T13:39:23.644Z,15.50
2022-11-08T13:42:25.079Z,15.38
2022-11-08T13:44:54.829Z,15.25
2022-11-08T13:47:33.441Z,15.03
2022-11-08T13:50:18.930Z,14.92
2022-11-08T13:52:46.444Z,14.77
2022-11-08T13:55:31.751Z,14.65
2022-11-08T13:57:59.748Z,14.53
2022-11-08T14:00:34.885Z,14.41
2022-11-08T14:03:01.273Z,14.27
2022-11-08T14:05:28.693Z,14.11
2022-11-08T14:08:13.255Z,13.94
2022-11-08T14:10:48.837Z,13.79
2022-11-08T14:13:27.208Z,13.70
2022-11-08T14:16:25.826Z,13.59
2022-11-08T17:58:38.463Z,10.58
2022-11-08T18:01:06.391Z,10.61
2022-11-08T18:03:33.860Z,10.60
2022-11-08T18:06:01.310Z,10.61
2022-11-08T18:08:29.938Z,10.58
2022-11-08T18:10:57.145Z,10.55
2022-11-08T18:13:24.868Z,10.50
2022-11-08T18:15:52.309Z,10.47
2022-11-08T18:18:19.722Z,10.45
2022-11-08T18:20:53.145Z,10.38
2022-11-08T18:23:19.982Z,10.36
2022-11-08T18:25:50.193Z,10.36
2022-11-08T18:28:17.488Z,10.37
2022-11-08T18:30:48.175Z,10.40
2022-11-08T18:33:16.114Z,10.41
2022-11-08T18:35:43.461Z,10.38
2022-11-08T18:38:11.147Z,10.38
2022-11-08T18:40:37.608Z,10.39
2022-11-08T18:43:04.124Z,10.36
2022-11-08T18:45:30.913Z,10.36
2022-11-08T18:47:57.425Z,10.41
2022-11-08T18:50:23.896Z,10.39
2022-11-08T18:52:50.394Z,10.40
2022-11-08T18:55:16.938Z,10.37
2022-11-08T18:57:43.428Z,10.40
2022-11-08T19:00:10.542Z,10.46
2022-11-08T19:02:37.068Z,10.48
2022-11-08T19:05:03.713Z,10.50
2022-11-08T19:07:30.277Z,10.51
2022-11-08T19:09:56.824Z,10.53
2022-11-08T19:12:23.347Z,10.49
2022-11-08T19:14:50.001Z,10.51
2022-11-08T19:17:16.519Z,10.48
2022-11-08T19:19:44.185Z,10.50
2022-11-08T19:22:11.047Z,10.46
2022-11-08T19:24:38.310Z,10.45
2022-11-08T19:27:05.900Z,10.44
2022-11-08T19:29:32.494Z,10.39
2022-11-08T19:31:59.301Z,10.39
2022-11-08T19:34:26.063Z,10.39
2022-11-08T19:36:55.699Z,10.39
2022-11-08T19:39:23.958Z,10.37
2022-11-08T19:41:50.547Z,10.36
2022-11-08T19:44:17.231Z,10.40
2022-11-08T19:46:44.026Z,10.37
2022-11-08T19:49:10.739Z,10.39
2022-11-08T19:51:37.229Z,10.41
2022-11-08T19:54:06.769Z,10.41
2022-11-08T19:57:02.364Z,10.41
2022-11-08T19:59:20.805Z,10.43
2022-11-08T20:01:47.429Z,10.43
2022-11-08T20:04:14.788Z,10.42
2022-11-08T20:06:42.086Z,10.41
2022-11-08T20:09:09.570Z,10.44
2022-11-08T20:11:38.382Z,10.43
2022-11-08T20:14:06.506Z,10.43
2022-11-08T20:16:37.924Z,10.46
2022-11-08T20:19:13.990Z,10.48
2022-11-08T20:21:42.191Z,10.50
2022-11-08T20:24:10.371Z,10.49
2022-11-08T20:26:38.654Z,10.51
2022-11-08T20:29:07.294Z,10.49
2022-11-08T20:31:34.363Z,10.51
2022-11-08T20:34:01.689Z,10.47
2022-11-08T20:36:33.095Z,10.46
2022-11-08T20:39:06.567Z,10.47
2022-11-08T20:41:34.938Z,10.48
2022-11-08T20:44:01.490Z,10.53
2022-11-08T20:46:28.221Z,10.53
2022-11-08T20:49:00.147Z,10.55
2022-11-08T20:51:27.976Z,10.54
2022-11-08T20:53:56.722Z,10.51
2022-11-08T20:56:24.513Z,10.55
2022-11-08T20:58:52.453Z,10.53
2022-11-08T21:04:20.160Z,10.43
2022-11-08T21:06:46.721Z,10.36
2022-11-08T21:09:36.284Z,10.32
2022-11-08T21:12:00.667Z,10.32
2022-11-08T21:14:27.165Z,10.34
2022-11-08T21:17:22.846Z,10.34
2022-11-08T21:19:40.288Z,10.37
2022-11-08T21:22:15.714Z,10.40
2022-11-08T21:24:43.454Z,10.40
2022-11-08T21:27:10.575Z,10.42
2022-11-08T21:29:37.143Z,10.41
2022-11-08T21:32:04.738Z,10.42
2022-11-08T21:34:32.686Z,10.44
2022-11-08T21:36:59.968Z,10.44
2022-11-08T21:39:26.634Z,10.43
2022-11-08T21:41:53.117Z,10.45
2022-11-08T21:44:20.386Z,10.44
2022-11-08T21:46:46.975Z,10.48
2022-11-08T21:49:13.602Z,10.54
2022-11-08T21:51:40.226Z,10.52
2022-11-08T21:54:07.296Z,10.52
2022-11-08T21:56:34.566Z,10.55
2022-11-08T21:59:02.052Z,10.57
2022-11-08T22:01:30.895Z,10.60
2022-11-08T22:04:01.189Z,10.62
2022-11-08T22:06:28.922Z,10.66
2022-11-08T22:08:55.727Z,10.63
2022-11-08T22:11:22.298Z,10.63
2022-11-08T22:13:49.117Z,10.70
2022-11-08T22:16:15.617Z,10.70
2022-11-08T22:19:03.778Z,10.72
2022-11-08T22:21:37.959Z,10.69
2022-11-08T22:24:09.684Z,10.66
2022-11-08T22:26:36.206Z,10.63
2022-11-08T22:29:03.533Z,10.61
2022-11-08T22:31:30.530Z,10.58
2022-11-08T22:33:56.967Z,10.56
2022-11-08T22:36:23.523Z,10.54
2022-11-08T22:38:50.113Z,10.54
2022-11-08T22:41:21.535Z,10.47
2022-11-08T22:43:48.457Z,10.41
2022-11-08T22:46:15.866Z,10.37
2022-11-08T22:48:42.566Z,10.37
2022-11-08T22:51:09.347Z,10.36
2022-11-08T22:53:36.610Z,10.30
2022-11-08T22:56:09.761Z,10.28
2022-11-08T22:58:38.309Z,10.24
2022-11-08T23:01:05.405Z,10.22
2022-11-08T23:03:31.773Z,10.18
2022-11-08T23:05:58.625Z,10.16
2022-11-08T23:08:26.543Z,10.16
2022-11-08T23:11:12.607Z,10.13
2022-11-08T23:13:58.573Z,10.13
2022-11-08T23:16:37.895Z,10.15
2022-11-08T23:19:28.810Z,10.18
2022-11-08T23:22:14.303Z,10.18
2022-11-08T23:24:42.596Z,10.23
2022-11-08T23:27:29.224Z,10.24
2022-11-08T23:30:24.647Z,10.26
2022-11-08T23:32:51.901Z,10.28
2022-11-08T23:35:20.996Z,10.27
2022-11-08T23:37:48.128Z,10.25
2022-11-08T23:40:34.714Z,10.26
2022-11-08T23:43:29.081Z,10.26
2022-11-08T23:45:56.194Z,10.26
2022-11-08T23:48:23.001Z,10.26
2022-11-08T23:50:55.278Z,10.26
2022-11-08T23:53:26.484Z,10.25
2022-11-08T23:55:54.133Z,10.22
2022-11-08T23:58:21.611Z,10.16
